createdAt,value
2023-01-02T00:01:56.698Z,96.53
2023-01-02T00:04:58.748Z,97.19
2023-01-02T00:08:00.698Z,97.16
2023-01-02T00:11:02.220Z,96.78
2023-01-02T00:14:03.863Z,96.62
2023-01-02T00:17:05.472Z,97.30
2023-01-02T00:20:07.482Z,96.86
2023-01-02T00:23:10.482Z,97.12
2023-01-02T00:26:12.425Z,97.64
2023-01-02T00:29:14.395Z,97.37
2023-01-02T00:32:16.434Z,97.31
2023-01-02T00:35:18.536Z,97.37
2023-01-02T00:38:20.506Z,98.02
2023-01-02T00:41:22.816Z,97.90
2023-01-02T00:44:24.387Z,97.86
2023-01-02T00:47:27.399Z,97.67
2023-01-02T00:50:29.911Z,97.43
2023-01-02T00:53:31.517Z,97.64
2023-01-02T00:56:33.239Z,97.93
2023-01-02T00:59:35.240Z,98.14
2023-01-02T01:02:37.304Z,97.85
2023-01-02T01:05:42.884Z,97.77
2023-01-02T01:08:44.868Z,97.66
2023-01-02T01:11:46.886Z,97.63
2023-01-02T01:14:48.879Z,97.71
2023-01-02T01:17:50.449Z,97.79
2023-01-02T01:20:52.427Z,97.88
2023-01-02T01:23:55.391Z,98.11
2023-01-02T01:26:57.398Z,97.62
2023-01-02T01:29:59.458Z,97.67
2023-01-02T01:33:01.454Z,97.57
2023-01-02T01:36:24.203Z,97.81
2023-01-02T01:39:25.726Z,97.69
2023-01-02T01:42:33.441Z,98.04
2023-01-02T01:45:35.703Z,98.68
2023-01-02T01:48:38.208Z,98.38
2023-01-02T01:52:05.126Z,98.02
2023-01-02T01:55:13.081Z,97.75
2023-01-02T01:58:19.298Z,97.82
2023-01-02T02:01:21.022Z,97.62
2023-01-02T02:04:26.406Z,98.23
2023-01-02T02:07:30.501Z,97.99
2023-01-02T02:10:32.899Z,98.07
2023-01-02T02:13:35.354Z,97.54
2023-01-02T02:17:06.181Z,98.20
2023-01-02T02:20:33.900Z,97.76
2023-01-02T02:24:13.513Z,97.81
2023-01-02T02:28:03.288Z,97.74
2023-01-02T02:31:17.377Z,97.75
2023-01-02T02:34:30.067Z,97.43
2023-01-02T02:38:10.518Z,97.73
2023-01-02T02:41:37.487Z,97.72
2023-01-02T02:45:01.711Z,98.26
2023-01-02T02:48:25.845Z,97.94
2023-01-02T02:51:36.406Z,97.32
2023-01-02T02:54:44.021Z,97.56
2023-01-02T02:57:48.297Z,97.52
2023-01-02T03:00:50.472Z,97.87
2023-01-02T03:03:52.456Z,97.86
2023-01-02T03:06:59.843Z,97.95
2023-01-02T03:10:23.429Z,98.13
2023-01-02T03:13:53.556Z,98.07
2023-01-02T03:17:02.562Z,97.98
2023-01-02T03:20:10.131Z,97.89
2023-01-02T03:23:20.256Z,98.00
2023-01-02T03:26:26.826Z,98.18
2023-01-02T03:29:40.840Z,97.72
2023-01-02T03:32:50.355Z,98.01
2023-01-02T03:35:57.071Z,97.19
2023-01-02T03:39:06.480Z,97.27
2023-01-02T03:42:15.166Z,97.53
2023-01-02T03:45:30.962Z,97.59
2023-01-02T03:48:41.973Z,97.31
2023-01-02T03:51:43.558Z,97.04
2023-01-02T03:54:45.559Z,97.49
2023-01-02T03:58:15.982Z,97.15
2023-01-02T04:01:44.397Z,97.57
2023-01-02T04:04:51.149Z,97.20
2023-01-02T04:08:06.045Z,97.43
2023-01-02T04:11:09.790Z,97.54
2023-01-02T04:14:20.548Z,97.12
2023-01-02T04:17:25.214Z,97.38
2023-01-02T04:20:31.811Z,97.03
2023-01-02T04:23:45.310Z,97.04
2023-01-02T04:26:57.403Z,97.14
2023-01-02T04:29:59.446Z,97.19
2023-01-02T04:33:07.299Z,97.52
2023-01-02T04:36:14.639Z,96.90
2023-01-02T04:39:20.199Z,97.14
2023-01-02T04:42:21.735Z,97.29
2023-01-02T04:45:23.674Z,97.34
2023-01-02T04:48:25.280Z,97.82
2023-01-02T04:51:27.273Z,97.52
2023-01-02T04:54:29.265Z,97.82
2023-01-02T04:57:32.083Z,97.67
2023-01-02T05:00:34.451Z,97.53
2023-01-02T05:03:43.405Z,97.09
2023-01-02T05:06:44.961Z,97.52
2023-01-02T05:09:46.575Z,97.60
2023-01-02T05:12:48.623Z,97.67
2023-01-02T05:15:57.862Z,97.57
2023-01-02T05:18:59.470Z,97.39
2023-01-02T05:22:19.929Z,97.11
2023-01-02T05:25:21.735Z,97.57
2023-01-02T05:28:23.322Z,97.49
2023-01-02T05:31:24.946Z,97.43
2023-01-02T05:34:26.525Z,97.66
2023-01-02T05:37:30.444Z,97.91
2023-01-02T05:40:32.031Z,98.08
2023-01-02T05:43:36.381Z,97.93
2023-01-02T05:46:39.805Z,97.89
2023-01-02T05:49:42.842Z,98.14
2023-01-02T05:52:46.001Z,98.22
2023-01-02T05:55:49.246Z,97.98
2023-01-02T05:58:51.380Z,99.30
2023-01-02T06:01:53.074Z,98.71
2023-01-02T06:04:54.759Z,98.31
2023-01-02T06:07:56.322Z,98.16
2023-01-02T06:10:58.417Z,98.48
2023-01-02T06:14:01.125Z,98.39
2023-01-02T06:17:02.670Z,97.95
2023-01-02T06:20:04.827Z,97.93
2023-01-02T06:23:06.798Z,98.73
2023-01-02T06:26:18.006Z,98.00
2023-01-02T06:29:20.023Z,98.26
2023-01-02T06:32:21.564Z,98.06
2023-01-02T06:35:23.302Z,98.59
2023-01-02T06:38:27.120Z,97.75
2023-01-02T06:41:29.281Z,98.24
2023-01-02T06:44:30.902Z,97.65
2023-01-02T06:47:33.077Z,98.03
2023-01-02T06:50:36.442Z,98.13
2023-01-02T06:53:39.865Z,98.19
2023-01-02T06:56:41.502Z,98.37
2023-01-02T06:59:43.051Z,98.39
2023-01-02T07:02:45.463Z,98.20
2023-01-02T07:05:47.080Z,98.37
2023-01-02T07:08:50.687Z,97.89
2023-01-02T07:11:53.711Z,98.04
2023-01-02T07:14:56.260Z,97.95
2023-01-02T07:17:58.307Z,98.49
2023-01-02T07:21:00.780Z,98.56
2023-01-02T07:24:03.535Z,98.34
2023-01-02T07:27:05.057Z,98.05
2023-01-02T07:30:07.178Z,98.69
2023-01-02T07:33:09.997Z,98.73
2023-01-02T07:36:15.185Z,98.82
2023-01-02T07:39:16.795Z,98.59
2023-01-02T07:42:18.778Z,97.67
2023-01-02T07:45:20.456Z,98.22
2023-01-02T07:48:22.111Z,98.03
2023-01-02T07:51:27.247Z,98.28
2023-01-02T07:54:33.064Z,98.17
2023-01-02T07:57:34.823Z,98.19
2023-01-02T08:00:36.822Z,98.24
2023-01-02T08:03:39.321Z,98.03
2023-01-02T08:06:41.421Z,97.74
2023-01-02T08:09:43.076Z,97.94
2023-01-02T08:12:44.686Z,97.60
2023-01-02T08:15:46.540Z,98.29
2023-01-02T08:18:54.654Z,98.40
2023-01-02T08:21:57.059Z,97.90
2023-01-02T08:24:59.018Z,97.73
2023-01-02T08:28:01.059Z,97.61
2023-01-02T08:31:08.602Z,97.85
2023-01-02T08:34:14.600Z,98.10
2023-01-02T08:37:16.741Z,98.15
2023-01-02T08:40:18.321Z,97.80
2023-01-02T08:43:21.049Z,98.21
2023-01-02T08:46:22.686Z,98.44
2023-01-02T08:49:24.433Z,98.71
2023-01-02T08:52:26.404Z,98.80
2023-01-02T08:55:28.385Z,98.52
2023-01-02T08:58:30.365Z,98.70
2023-01-02T09:01:33.356Z,97.99
2023-01-02T09:04:35.077Z,97.08
2023-01-02T09:07:37.473Z,97.09
2023-01-02T09:10:39.473Z,96.80
2023-01-02T09:13:42.405Z,96.31
2023-01-02T09:16:44.041Z,95.85
2023-01-02T09:19:45.632Z,95.60
2023-01-02T09:22:47.190Z,95.14
2023-01-02T09:25:48.750Z,94.84
2023-01-02T09:28:50.792Z,94.49
2023-01-02T09:31:52.452Z,94.03
2023-01-02T09:34:53.999Z,93.72
2023-01-02T09:37:55.546Z,93.63
2023-01-02T09:40:58.828Z,93.57
2023-01-02T09:44:05.825Z,93.32
2023-01-02T09:47:11.335Z,93.30
2023-01-02T09:50:18.723Z,93.15
2023-01-02T09:53:22.023Z,92.60
2023-01-02T09:56:33.956Z,92.45
2023-01-02T09:59:51.120Z,92.09
2023-01-02T10:03:11.912Z,92.73
2023-01-02T10:06:29.089Z,91.81
2023-01-02T10:09:45.971Z,91.78
2023-01-02T10:12:54.834Z,91.16
2023-01-02T10:16:00.348Z,90.85
2023-01-02T10:19:08.863Z,90.27
2023-01-02T10:22:15.821Z,89.59
2023-01-02T10:25:33.188Z,89.57
2023-01-02T10:28:58.005Z,88.69
2023-01-02T10:32:02.529Z,88.63
2023-01-02T10:35:06.937Z,89.06
2023-01-02T10:38:17.173Z,88.30
2023-01-02T10:41:19.382Z,87.37
2023-01-02T10:44:33.100Z,87.30
2023-01-02T10:47:39.527Z,87.24
2023-01-02T10:50:47.636Z,86.88
2023-01-02T10:54:01.472Z,86.31
2023-01-02T10:57:03.087Z,85.46
2023-01-02T11:00:06.376Z,85.78
2023-01-02T11:03:22.956Z,85.02
2023-01-02T11:06:31.028Z,83.97
2023-01-02T11:09:38.026Z,84.10
2023-01-02T11:12:48.022Z,84.19
2023-01-02T11:16:00.074Z,83.48
2023-01-02T11:19:04.125Z,83.33
2023-01-02T11:22:05.753Z,83.63
2023-01-02T11:25:29.229Z,83.15
2023-01-02T11:28:34.503Z,82.97
2023-01-02T11:31:44.301Z,82.84
2023-01-02T11:34:56.353Z,83.02
2023-01-02T11:37:58.276Z,83.11
2023-01-02T11:41:01.866Z,82.59
2023-01-02T11:44:03.812Z,81.71
2023-01-02T11:47:10.353Z,80.04
2023-01-02T11:50:23.248Z,77.31
2023-01-02T11:53:34.326Z,76.01
2023-01-02T11:56:39.689Z,75.73
2023-01-02T11:59:47.899Z,74.66
2023-01-02T12:02:52.443Z,74.53
2023-01-02T12:06:09.598Z,73.00
2023-01-02T12:09:15.293Z,73.37
2023-01-02T12:12:41.208Z,72.38
2023-01-02T12:16:13.558Z,71.82
2023-01-02T12:19:32.679Z,71.11
2023-01-02T12:23:13.809Z,70.53
2023-01-02T12:26:20.463Z,71.36
2023-01-02T12:29:48.901Z,70.00
2023-01-02T12:33:32.393Z,69.17
2023-01-02T12:36:57.220Z,67.95
2023-01-02T12:40:27.224Z,67.88
2023-01-02T12:43:32.452Z,65.28
2023-01-02T12:46:37.295Z,65.35
2023-01-02T12:49:55.865Z,64.20
2023-01-02T12:53:09.661Z,63.84
2023-01-02T12:56:27.781Z,63.19
2023-01-02T12:59:48.402Z,61.81
2023-01-02T13:03:15.838Z,62.07
2023-01-02T13:06:49.896Z,61.12
2023-01-02T13:09:54.352Z,61.20
2023-01-02T13:12:57.827Z,61.35
2023-01-02T13:16:10.348Z,60.81
2023-01-02T13:19:48.018Z,60.12
2023-01-02T13:23:11.353Z,60.31
2023-01-02T13:26:19.884Z,60.78
2023-01-02T13:29:26.536Z,61.44
2023-01-02T13:32:30.686Z,60.41
2023-01-02T13:35:37.213Z,60.94
2023-01-02T13:38:40.567Z,61.32
2023-01-02T13:42:14.032Z,61.41
2023-01-02T13:45:30.926Z,62.09
2023-01-02T13:48:43.859Z,62.06
2023-01-02T13:51:45.748Z,61.15
2023-01-02T13:55:21.207Z,61.09
2023-01-02T13:58:25.787Z,62.01
2023-01-02T14:02:00.042Z,61.47
2023-01-02T14:05:40.757Z,61.51
2023-01-02T14:09:04.875Z,61.40
2023-01-02T14:12:12.575Z,62.03
2023-01-02T14:15:21.868Z,62.13
2023-01-02T14:18:30.894Z,62.19
2023-01-02T14:21:43.031Z,62.11
2023-01-02T14:24:49.535Z,63.06
2023-01-02T14:27:55.499Z,63.28
2023-01-02T14:30:58.311Z,63.84
2023-01-02T14:34:01.643Z,64.64
2023-01-02T14:37:03.368Z,65.18
2023-01-02T14:40:19.143Z,65.71
2023-01-02T14:43:36.157Z,66.38
2023-01-02T14:46:38.535Z,67.66
2023-01-02T14:49:43.579Z,68.69
2023-01-02T14:52:51.694Z,69.25
2023-01-02T14:56:00.227Z,70.18
2023-01-02T14:59:04.643Z,70.44
2023-01-02T15:02:16.339Z,71.49
2023-01-02T15:05:26.875Z,71.36
2023-01-02T15:08:49.500Z,71.60
2023-01-02T15:12:14.341Z,72.22
2023-01-02T15:15:24.991Z,71.82
2023-01-02T15:18:33.230Z,71.74
2023-01-02T15:21:39.990Z,71.63
2023-01-02T15:24:48.191Z,72.22
2023-01-02T15:27:53.392Z,71.61
2023-01-02T15:31:04.324Z,72.60
2023-01-02T15:34:06.836Z,72.32
2023-01-02T15:37:10.843Z,72.30
2023-01-02T15:40:17.611Z,71.70
2023-01-02T15:43:38.106Z,72.21
2023-01-02T15:46:40.208Z,72.35
2023-01-02T15:49:44.587Z,72.75
2023-01-02T15:52:49.945Z,73.33
2023-01-02T15:55:51.566Z,73.26
2023-01-02T15:58:53.578Z,73.47
2023-01-02T16:01:55.772Z,74.04
2023-01-02T16:05:18.170Z,73.16
2023-01-02T16:08:22.528Z,73.62
2023-01-02T16:11:24.714Z,74.20
2023-01-02T16:14:37.618Z,74.41
2023-01-02T16:17:40.038Z,74.70
2023-01-02T16:20:41.783Z,74.61
2023-01-02T16:23:52.321Z,75.59
2023-01-02T16:26:54.140Z,75.58
2023-01-02T16:29:56.032Z,75.24
2023-01-02T16:33:01.671Z,74.59
2023-01-02T16:36:03.593Z,74.74
2023-01-02T16:39:51.376Z,75.12
2023-01-02T16:43:03.275Z,74.95
2023-01-02T16:46:10.734Z,74.70
2023-01-02T16:49:22.044Z,74.82
2023-01-02T16:52:23.634Z,74.62
2023-01-02T16:55:25.289Z,74.24
2023-01-02T16:58:27.078Z,74.75
2023-01-02T17:01:29.688Z,74.16
2023-01-02T17:04:31.361Z,74.43
2023-01-02T17:07:33.321Z,73.25
2023-01-02T17:10:37.703Z,73.65
2023-01-02T17:13:39.721Z,74.06
2023-01-02T17:16:41.692Z,73.51
2023-01-02T17:19:43.358Z,74.51
2023-01-02T17:22:44.929Z,73.64
2023-01-02T17:25:47.380Z,74.20
2023-01-02T17:28:49.317Z,73.58
2023-01-02T17:31:50.941Z,74.93
2023-01-02T17:34:53.219Z,74.13
2023-01-02T17:37:54.827Z,73.95
2023-01-02T17:40:59.508Z,74.53
2023-01-02T17:44:02.005Z,74.12
2023-01-02T17:47:38.953Z,74.43
2023-01-02T17:50:28.831Z,74.98
2023-01-02T17:53:30.811Z,74.07
2023-01-02T17:56:32.788Z,73.99
2023-01-02T17:59:35.847Z,74.53
2023-01-02T18:02:38.216Z,74.11
2023-01-02T18:05:40.495Z,74.53
2023-01-02T18:08:42.309Z,74.50
2023-01-02T18:11:44.384Z,73.89
2023-01-02T18:14:46.752Z,74.36
2023-01-02T18:17:49.493Z,74.40
2023-01-02T18:20:52.181Z,74.79
2023-01-02T18:23:57.548Z,74.80
2023-01-02T18:27:18.155Z,74.58
2023-01-02T18:30:23.852Z,74.58
2023-01-02T18:33:27.704Z,74.78
2023-01-02T18:36:31.601Z,74.78
2023-01-02T18:39:42.412Z,74.88
2023-01-02T18:42:46.877Z,76.14
2023-01-02T18:45:52.323Z,76.08
2023-01-02T18:48:54.545Z,75.86
2023-01-02T18:52:12.317Z,76.92
2023-01-02T18:55:14.317Z,77.09
2023-01-02T18:58:35.928Z,77.64
2023-01-02T19:01:44.845Z,78.37
2023-01-02T19:04:46.545Z,78.50
2023-01-02T19:07:48.570Z,78.82
2023-01-02T19:10:56.692Z,79.28
2023-01-02T19:13:59.225Z,79.39
2023-01-02T19:17:13.629Z,79.15
2023-01-02T19:20:15.234Z,77.84
2023-01-02T19:23:43.903Z,77.50
2023-01-02T19:26:51.369Z,76.39
2023-01-02T19:29:53.548Z,76.43
2023-01-02T19:32:55.128Z,76.69
2023-01-02T19:36:00.863Z,76.03
2023-01-02T19:39:11.524Z,75.30
2023-01-02T19:42:21.552Z,75.00
2023-01-02T19:45:26.708Z,74.67
2023-01-02T19:48:28.680Z,74.58
2023-01-02T19:51:32.192Z,74.97
2023-01-02T19:54:34.150Z,74.47
2023-01-02T19:57:36.319Z,75.11
2023-01-02T20:00:38.605Z,74.94
2023-01-02T20:03:40.642Z,75.28
2023-01-02T20:06:42.356Z,75.56
2023-01-02T20:09:44.724Z,75.07
2023-01-02T20:12:46.394Z,74.68
2023-01-02T20:15:48.854Z,74.62
2023-01-02T20:18:50.947Z,75.02
2023-01-02T20:21:52.510Z,74.93
2023-01-02T20:24:55.635Z,74.77
2023-01-02T20:27:57.409Z,74.92
2023-01-02T20:30:59.755Z,74.58
2023-01-02T20:34:02.229Z,74.74
2023-01-02T20:37:05.455Z,74.66
2023-01-02T20:40:08.351Z,74.84
2023-01-02T20:43:10.290Z,74.28
2023-01-02T20:46:12.336Z,74.71
2023-01-02T20:49:14.481Z,75.04
2023-01-02T20:52:19.373Z,74.77
2023-01-02T20:55:21.421Z,74.95
2023-01-02T20:58:23.441Z,74.97
2023-01-02T21:01:26.640Z,74.70
2023-01-02T21:04:36.271Z,75.08
2023-01-02T21:07:39.636Z,74.70
2023-01-02T21:10:43.186Z,75.60
2023-01-02T21:13:44.744Z,74.80
2023-01-02T21:16:46.315Z,75.22
2023-01-02T21:19:48.406Z,75.81
2023-01-02T21:22:49.971Z,74.97
2023-01-02T21:25:52.486Z,75.27
2023-01-02T21:28:54.517Z,75.58
2023-01-02T21:31:56.539Z,75.54
2023-01-02T21:35:01.659Z,75.86
2023-01-02T21:38:03.689Z,75.96
2023-01-02T21:41:25.027Z,76.29
2023-01-02T21:44:26.669Z,76.32
2023-01-02T21:47:29.015Z,76.57
2023-01-02T21:50:31.110Z,76.80
2023-01-02T21:53:33.386Z,77.02
2023-01-02T21:56:35.434Z,76.62
2023-01-02T21:59:37.755Z,76.69
2023-01-02T22:02:39.773Z,76.88
2023-01-02T22:05:41.826Z,76.39
2023-01-02T22:08:43.408Z,77.00
2023-01-02T22:11:57.042Z,76.77
2023-01-02T22:14:58.797Z,77.21
2023-01-02T22:18:00.843Z,77.09
2023-01-02T22:21:02.472Z,77.16
2023-01-02T22:24:04.449Z,76.51
2023-01-02T22:27:09.013Z,76.90
2023-01-02T22:30:22.030Z,77.36
2023-01-02T22:33:29.044Z,77.31
2023-01-02T22:36:31.739Z,77.84
2023-01-02T22:39:33.681Z,77.66
2023-01-02T22:43:10.463Z,78.23
2023-01-02T22:46:27.115Z,78.26
2023-01-02T22:49:31.225Z,78.50
2023-01-02T22:52:34.675Z,78.71
2023-01-02T22:55:37.154Z,78.82
2023-01-02T22:58:38.682Z,79.16
2023-01-02T23:01:42.288Z,79.36
2023-01-02T23:04:44.487Z,79.36
2023-01-02T23:07:46.697Z,79.52
2023-01-02T23:10:49.142Z,79.64
2023-01-02T23:13:56.273Z,79.35
2023-01-02T23:17:17.618Z,79.09
2023-01-02T23:20:19.187Z,79.45
2023-01-02T23:23:21.366Z,79.26
2023-01-02T23:26:25.943Z,79.38
2023-01-02T23:29:28.754Z,79.28
2023-01-02T23:32:30.386Z,79.44
2023-01-02T23:35:32.127Z,79.60
2023-01-02T23:38:34.811Z,79.63
2023-01-02T23:41:36.436Z,79.72
2023-01-02T23:44:39.422Z,79.81
2023-01-02T23:47:40.989Z,80.09
2023-01-02T23:50:46.162Z,79.58
2023-01-02T23:53:48.180Z,80.03
2023-01-02T23:56:51.066Z,79.08
2023-01-02T23:59:53.053Z,78.50
